New Offenburg, Missouri
Current Conditions -  °F | °C
As of 2:35 AM on Sunday 23 Nov 2014 (Local Time) from KFAM Reporting Station
Few Clouds Few Clouds  
Wind Chill: 45°   Ceiling: Unl
Heat Index: 48°   Visibility: 10mi
Dew Point: 43°   Wind: 8mph
Humidity: 82%   Direction: 120°ESE
Pressure: 29.84"   Gusts: NA
Location:  37.91°N, 90.2°W
Report Text: KFAM 230835Z AUTO 12007KT 10SM FEW033 09/06 A2984 RMK AO1
Loading
Personal Weather Stations






























Interactive Weather Map New forecast layout! Learn more

10-Day Weather Forecast

Advertisements
Track Severe Weather on mobile